sensor_id;sensor_type;location;lat;lon;timestamp;P1;durP1;ratioP1;P2;durP2;ratioP2
6019;SDS011;3038;51.122;6.840;2023-02-12T00:01:13;66.73;;;43.73;;
6019;SDS011;3038;51.122;6.840;2023-02-12T00:03:39;64.73;;;42.77;;
6019;SDS011;3038;51.122;6.840;2023-02-12T00:06:05;69.43;;;41.77;;
6019;SDS011;3038;51.122;6.840;2023-02-12T00:08:31;69.63;;;42.87;;
6019;SDS011;3038;51.122;6.840;2023-02-12T00:10:57;63.23;;;43.23;;
6019;SDS011;3038;51.122;6.840;2023-02-12T00:13:22;62.50;;;40.67;;
6019;SDS011;3038;51.122;6.840;2023-02-12T00:15:48;62.70;;;39.70;;
6019;SDS011;3038;51.122;6.840;2023-02-12T00:18:14;68.03;;;40.77;;
6019;SDS011;3038;51.122;6.840;2023-02-12T00:20:39;68.17;;;42.97;;
6019;SDS011;3038;51.122;6.840;2023-02-12T00:23:05;63.00;;;40.70;;
6019;SDS011;3038;51.122;6.840;2023-02-12T00:25:30;65.30;;;40.07;;
6019;SDS011;3038;51.122;6.840;2023-02-12T00:27:56;64.87;;;39.90;;
6019;SDS011;3038;51.122;6.840;2023-02-12T00:30:22;61.63;;;40.80;;
6019;SDS011;3038;51.122;6.840;2023-02-12T00:32:47;58.97;;;39.63;;
6019;SDS011;3038;51.122;6.840;2023-02-12T00:35:12;62.23;;;39.10;;
6019;SDS011;3038;51.122;6.840;2023-02-12T00:37:38;62.23;;;39.40;;
6019;SDS011;3038;51.122;6.840;2023-02-12T00:40:04;60.90;;;38.70;;
6019;SDS011;3038;51.122;6.840;2023-02-12T00:42:30;60.00;;;37.47;;
6019;SDS011;3038;51.122;6.840;2023-02-12T00:44:55;63.87;;;40.30;;
6019;SDS011;3038;51.122;6.840;2023-02-12T00:47:21;62.97;;;39.00;;
6019;SDS011;3038;51.122;6.840;2023-02-12T00:49:46;56.60;;;37.67;;
6019;SDS011;3038;51.122;6.840;2023-02-12T00:52:11;63.10;;;39.47;;
6019;SDS011;3038;51.122;6.840;2023-02-12T00:54:37;61.70;;;39.57;;
6019;SDS011;3038;51.122;6.840;2023-02-12T00:57:02;66.67;;;41.57;;
6019;SDS011;3038;51.122;6.840;2023-02-12T00:59:27;62.33;;;39.20;;
6019;SDS011;3038;51.122;6.840;2023-02-12T01:01:54;65.17;;;38.27;;
6019;SDS011;3038;51.122;6.840;2023-02-12T01:04:20;64.33;;;39.00;;
6019;SDS011;3038;51.122;6.840;2023-02-12T01:06:46;62.90;;;37.73;;
6019;SDS011;3038;51.122;6.840;2023-02-12T01:09:11;63.90;;;39.33;;
6019;SDS011;3038;51.122;6.840;2023-02-12T01:11:37;69.50;;;39.50;;
6019;SDS011;3038;51.122;6.840;2023-02-12T01:14:03;64.60;;;38.13;;
6019;SDS011;3038;51.122;6.840;2023-02-12T01:16:29;60.47;;;38.27;;
6019;SDS011;3038;51.122;6.840;2023-02-12T01:19:00;64.60;;;41.50;;
6019;SDS011;3038;51.122;6.840;2023-02-12T01:21:28;68.83;;;38.90;;
6019;SDS011;3038;51.122;6.840;2023-02-12T01:23:55;62.67;;;40.77;;
6019;SDS011;3038;51.122;6.840;2023-02-12T01:26:21;60.13;;;38.57;;
6019;SDS011;3038;51.122;6.840;2023-02-12T01:28:50;69.60;;;40.57;;
6019;SDS011;3038;51.122;6.840;2023-02-12T01:31:19;70.10;;;42.00;;
6019;SDS011;3038;51.122;6.840;2023-02-12T01:33:47;64.10;;;41.00;;
6019;SDS011;3038;51.122;6.840;2023-02-12T01:36:16;69.20;;;41.53;;
6019;SDS011;3038;51.122;6.840;2023-02-12T01:38:42;65.57;;;40.70;;
6019;SDS011;3038;51.122;6.840;2023-02-12T01:41:10;66.13;;;41.40;;
6019;SDS011;3038;51.122;6.840;2023-02-12T01:43:41;58.90;;;39.90;;
6019;SDS011;3038;51.122;6.840;2023-02-12T01:46:07;67.93;;;40.80;;
6019;SDS011;3038;51.122;6.840;2023-02-12T01:48:38;69.17;;;41.30;;
6019;SDS011;3038;51.122;6.840;2023-02-12T01:51:06;61.60;;;39.00;;
6019;SDS011;3038;51.122;6.840;2023-02-12T01:53:37;64.53;;;40.23;;
6019;SDS011;3038;51.122;6.840;2023-02-12T01:56:07;68.57;;;38.87;;
6019;SDS011;3038;51.122;6.840;2023-02-12T01:58:35;70.93;;;39.30;;
6019;SDS011;3038;51.122;6.840;2023-02-12T02:01:04;61.23;;;40.30;;
6019;SDS011;3038;51.122;6.840;2023-02-12T02:03:36;63.30;;;38.50;;
6019;SDS011;3038;51.122;6.840;2023-02-12T02:06:17;61.67;;;40.67;;
6019;SDS011;3038;51.122;6.840;2023-02-12T02:08:46;60.00;;;36.67;;
6019;SDS011;3038;51.122;6.840;2023-02-12T02:11:12;62.70;;;37.40;;
6019;SDS011;3038;51.122;6.840;2023-02-12T02:13:56;62.30;;;39.83;;
6019;SDS011;3038;51.122;6.840;2023-02-12T02:16:41;63.30;;;39.30;;
6019;SDS011;3038;51.122;6.840;2023-02-12T02:19:16;66.83;;;41.43;;
6019;SDS011;3038;51.122;6.840;2023-02-12T02:22:13;61.67;;;40.03;;
6019;SDS011;3038;51.122;6.840;2023-02-12T02:27:39;68.60;;;42.00;;
6019;SDS011;3038;51.122;6.840;2023-02-12T02:35:26;65.70;;;39.30;;
6019;SDS011;3038;51.122;6.840;2023-02-12T02:40:40;69.30;;;41.27;;
6019;SDS011;3038;51.122;6.840;2023-02-12T02:43:14;72.30;;;40.17;;
6019;SDS011;3038;51.122;6.840;2023-02-12T02:45:45;63.60;;;40.03;;
6019;SDS011;3038;51.122;6.840;2023-02-12T02:51:13;65.90;;;40.67;;
6019;SDS011;3038;51.122;6.840;2023-02-12T02:53:47;74.43;;;43.87;;
6019;SDS011;3038;51.122;6.840;2023-02-12T02:56:16;74.63;;;43.33;;
6019;SDS011;3038;51.122;6.840;2023-02-12T02:58:49;68.47;;;40.37;;
6019;SDS011;3038;51.122;6.840;2023-02-12T03:01:21;66.67;;;42.87;;
6019;SDS011;3038;51.122;6.840;2023-02-12T03:03:56;68.90;;;40.60;;
6019;SDS011;3038;51.122;6.840;2023-02-12T03:09:00;67.83;;;39.10;;
6019;SDS011;3038;51.122;6.840;2023-02-12T03:11:30;65.23;;;39.23;;
6019;SDS011;3038;51.122;6.840;2023-02-12T03:14:08;67.63;;;41.10;;
6019;SDS011;3038;51.122;6.840;2023-02-12T03:19:21;66.57;;;39.63;;
6019;SDS011;3038;51.122;6.840;2023-02-12T03:21:57;73.90;;;41.80;;
6019;SDS011;3038;51.122;6.840;2023-02-12T03:24:33;72.57;;;41.90;;
6019;SDS011;3038;51.122;6.840;2023-02-12T03:27:10;72.43;;;41.50;;
6019;SDS011;3038;51.122;6.840;2023-02-12T03:29:41;61.40;;;40.97;;
6019;SDS011;3038;51.122;6.840;2023-02-12T03:32:23;69.90;;;42.70;;
6019;SDS011;3038;51.122;6.840;2023-02-12T03:35:20;62.53;;;39.87;;
6019;SDS011;3038;51.122;6.840;2023-02-12T03:40:42;71.63;;;40.73;;
6019;SDS011;3038;51.122;6.840;2023-02-12T03:43:20;73.07;;;41.23;;
6019;SDS011;3038;51.122;6.840;2023-02-12T03:45:51;69.27;;;40.80;;
6019;SDS011;3038;51.122;6.840;2023-02-12T03:53:36;65.47;;;40.10;;
6019;SDS011;3038;51.122;6.840;2023-02-12T03:56:03;67.93;;;40.73;;
6019;SDS011;3038;51.122;6.840;2023-02-12T03:58:34;70.73;;;41.23;;
6019;SDS011;3038;51.122;6.840;2023-02-12T04:01:01;72.03;;;45.67;;
6019;SDS011;3038;51.122;6.840;2023-02-12T04:03:28;74.57;;;43.20;;
6019;SDS011;3038;51.122;6.840;2023-02-12T04:05:54;72.40;;;40.60;;
6019;SDS011;3038;51.122;6.840;2023-02-12T04:08:20;70.60;;;42.47;;
6019;SDS011;3038;51.122;6.840;2023-02-12T04:11:10;68.30;;;41.87;;
6019;SDS011;3038;51.122;6.840;2023-02-12T04:13:40;70.87;;;42.10;;
6019;SDS011;3038;51.122;6.840;2023-02-12T04:16:16;70.87;;;39.83;;
6019;SDS011;3038;51.122;6.840;2023-02-12T04:18:45;65.53;;;40.97;;
6019;SDS011;3038;51.122;6.840;2023-02-12T04:31:50;69.67;;;41.20;;
6019;SDS011;3038;51.122;6.840;2023-02-12T04:34:31;68.47;;;42.10;;
6019;SDS011;3038;51.122;6.840;2023-02-12T04:37:14;71.03;;;43.80;;
6019;SDS011;3038;51.122;6.840;2023-02-12T04:39:42;66.00;;;41.10;;
6019;SDS011;3038;51.122;6.840;2023-02-12T04:42:08;69.60;;;43.40;;
6019;SDS011;3038;51.122;6.840;2023-02-12T04:44:37;73.43;;;43.27;;
6019;SDS011;3038;51.122;6.840;2023-02-12T04:47:04;65.57;;;39.90;;
6019;SDS011;3038;51.122;6.840;2023-02-12T04:49:29;73.80;;;41.87;;
6019;SDS011;3038;51.122;6.840;2023-02-12T04:51:54;63.83;;;42.17;;
6019;SDS011;3038;51.122;6.840;2023-02-12T04:54:20;62.23;;;38.50;;
6019;SDS011;3038;51.122;6.840;2023-02-12T04:56:47;68.43;;;40.97;;
6019;SDS011;3038;51.122;6.840;2023-02-12T04:59:13;69.13;;;41.33;;
6019;SDS011;3038;51.122;6.840;2023-02-12T05:01:39;68.80;;;39.90;;
6019;SDS011;3038;51.122;6.840;2023-02-12T05:04:05;71.10;;;43.23;;
6019;SDS011;3038;51.122;6.840;2023-02-12T05:06:34;69.80;;;41.20;;
6019;SDS011;3038;51.122;6.840;2023-02-12T05:09:00;70.50;;;41.57;;
6019;SDS011;3038;51.122;6.840;2023-02-12T05:11:25;70.43;;;39.77;;
6019;SDS011;3038;51.122;6.840;2023-02-12T05:13:51;72.80;;;41.87;;
6019;SDS011;3038;51.122;6.840;2023-02-12T05:16:17;72.17;;;42.13;;
6019;SDS011;3038;51.122;6.840;2023-02-12T05:18:43;73.37;;;43.60;;
6019;SDS011;3038;51.122;6.840;2023-02-12T05:21:09;72.13;;;41.73;;
6019;SDS011;3038;51.122;6.840;2023-02-12T05:23:35;73.67;;;41.80;;
6019;SDS011;3038;51.122;6.840;2023-02-12T05:26:03;74.27;;;42.23;;
6019;SDS011;3038;51.122;6.840;2023-02-12T05:28:31;72.40;;;42.73;;
6019;SDS011;3038;51.122;6.840;2023-02-12T05:31:00;70.13;;;40.60;;
6019;SDS011;3038;51.122;6.840;2023-02-12T05:33:27;71.50;;;41.47;;
6019;SDS011;3038;51.122;6.840;2023-02-12T05:35:52;69.00;;;41.77;;
6019;SDS011;3038;51.122;6.840;2023-02-12T05:38:18;74.13;;;41.77;;
6019;SDS011;3038;51.122;6.840;2023-02-12T05:40:43;58.80;;;39.37;;
6019;SDS011;3038;51.122;6.840;2023-02-12T05:43:09;66.37;;;40.27;;
6019;SDS011;3038;51.122;6.840;2023-02-12T05:45:35;71.27;;;42.47;;
6019;SDS011;3038;51.122;6.840;2023-02-12T05:48:01;70.63;;;39.87;;
6019;SDS011;3038;51.122;6.840;2023-02-12T05:50:27;68.33;;;40.57;;
6019;SDS011;3038;51.122;6.840;2023-02-12T05:52:53;68.73;;;42.80;;
6019;SDS011;3038;51.122;6.840;2023-02-12T05:55:18;73.50;;;42.77;;
6019;SDS011;3038;51.122;6.840;2023-02-12T05:57:43;71.03;;;43.93;;
6019;SDS011;3038;51.122;6.840;2023-02-12T06:00:09;67.90;;;41.60;;
6019;SDS011;3038;51.122;6.840;2023-02-12T06:02:35;66.37;;;42.10;;
6019;SDS011;3038;51.122;6.840;2023-02-12T06:05:01;76.00;;;41.00;;
6019;SDS011;3038;51.122;6.840;2023-02-12T06:07:27;68.87;;;44.07;;
6019;SDS011;3038;51.122;6.840;2023-02-12T06:09:52;72.60;;;42.53;;
6019;SDS011;3038;51.122;6.840;2023-02-12T06:12:19;61.93;;;39.40;;
6019;SDS011;3038;51.122;6.840;2023-02-12T06:14:45;66.77;;;41.20;;
6019;SDS011;3038;51.122;6.840;2023-02-12T06:17:10;71.00;;;42.27;;
6019;SDS011;3038;51.122;6.840;2023-02-12T06:19:35;63.80;;;39.93;;
6019;SDS011;3038;51.122;6.840;2023-02-12T06:22:01;70.40;;;40.20;;
6019;SDS011;3038;51.122;6.840;2023-02-12T06:24:27;74.50;;;44.73;;
6019;SDS011;3038;51.122;6.840;2023-02-12T06:26:52;69.10;;;43.57;;
6019;SDS011;3038;51.122;6.840;2023-02-12T06:29:18;72.67;;;43.57;;
6019;SDS011;3038;51.122;6.840;2023-02-12T06:31:44;67.73;;;43.03;;
6019;SDS011;3038;51.122;6.840;2023-02-12T06:34:10;67.57;;;42.13;;
6019;SDS011;3038;51.122;6.840;2023-02-12T06:36:37;66.87;;;42.10;;
6019;SDS011;3038;51.122;6.840;2023-02-12T06:39:04;77.97;;;44.57;;
6019;SDS011;3038;51.122;6.840;2023-02-12T06:41:30;65.90;;;38.73;;
6019;SDS011;3038;51.122;6.840;2023-02-12T06:43:56;68.33;;;38.70;;
6019;SDS011;3038;51.122;6.840;2023-02-12T06:46:22;63.57;;;41.27;;
6019;SDS011;3038;51.122;6.840;2023-02-12T06:48:47;69.87;;;40.40;;
6019;SDS011;3038;51.122;6.840;2023-02-12T06:51:16;65.30;;;41.10;;
6019;SDS011;3038;51.122;6.840;2023-02-12T06:53:45;62.37;;;40.70;;
6019;SDS011;3038;51.122;6.840;2023-02-12T06:56:12;60.57;;;38.57;;
6019;SDS011;3038;51.122;6.840;2023-02-12T06:58:38;70.20;;;40.03;;
6019;SDS011;3038;51.122;6.840;2023-02-12T07:01:09;64.50;;;41.47;;
6019;SDS011;3038;51.122;6.840;2023-02-12T07:03:40;69.63;;;40.70;;
6019;SDS011;3038;51.122;6.840;2023-02-12T07:06:06;67.30;;;41.13;;
6019;SDS011;3038;51.122;6.840;2023-02-12T07:08:31;66.87;;;39.03;;
6019;SDS011;3038;51.122;6.840;2023-02-12T07:10:57;67.73;;;41.40;;
6019;SDS011;3038;51.122;6.840;2023-02-12T07:13:22;70.63;;;39.80;;
6019;SDS011;3038;51.122;6.840;2023-02-12T07:15:47;78.17;;;42.90;;
6019;SDS011;3038;51.122;6.840;2023-02-12T07:18:13;64.23;;;41.50;;
6019;SDS011;3038;51.122;6.840;2023-02-12T07:20:38;64.37;;;40.97;;
6019;SDS011;3038;51.122;6.840;2023-02-12T07:23:03;65.10;;;39.60;;
6019;SDS011;3038;51.122;6.840;2023-02-12T07:25:29;69.87;;;39.30;;
6019;SDS011;3038;51.122;6.840;2023-02-12T07:27:54;63.20;;;38.10;;
6019;SDS011;3038;51.122;6.840;2023-02-12T07:30:20;65.00;;;39.43;;
6019;SDS011;3038;51.122;6.840;2023-02-12T07:32:45;61.70;;;37.37;;
6019;SDS011;3038;51.122;6.840;2023-02-12T07:35:10;63.03;;;38.70;;
6019;SDS011;3038;51.122;6.840;2023-02-12T07:37:36;68.07;;;41.00;;
6019;SDS011;3038;51.122;6.840;2023-02-12T07:40:01;56.90;;;37.47;;
6019;SDS011;3038;51.122;6.840;2023-02-12T07:42:27;67.40;;;38.47;;
6019;SDS011;3038;51.122;6.840;2023-02-12T07:44:53;63.33;;;38.80;;
6019;SDS011;3038;51.122;6.840;2023-02-12T07:47:18;65.80;;;38.83;;
6019;SDS011;3038;51.122;6.840;2023-02-12T07:49:44;67.10;;;39.70;;
6019;SDS011;3038;51.122;6.840;2023-02-12T07:52:09;69.20;;;41.07;;
6019;SDS011;3038;51.122;6.840;2023-02-12T07:54:34;59.57;;;37.60;;
6019;SDS011;3038;51.122;6.840;2023-02-12T07:57:00;66.00;;;40.60;;
6019;SDS011;3038;51.122;6.840;2023-02-12T07:59:26;67.83;;;40.93;;
6019;SDS011;3038;51.122;6.840;2023-02-12T08:01:52;72.37;;;42.67;;
6019;SDS011;3038;51.122;6.840;2023-02-12T08:04:22;69.63;;;41.97;;
6019;SDS011;3038;51.122;6.840;2023-02-12T08:06:50;70.67;;;43.80;;
6019;SDS011;3038;51.122;6.840;2023-02-12T08:09:18;73.07;;;42.57;;
6019;SDS011;3038;51.122;6.840;2023-02-12T08:11:54;69.07;;;41.00;;
6019;SDS011;3038;51.122;6.840;2023-02-12T08:14:20;66.73;;;41.27;;
6019;SDS011;3038;51.122;6.840;2023-02-12T08:16:46;67.27;;;42.70;;
6019;SDS011;3038;51.122;6.840;2023-02-12T08:19:13;72.60;;;42.17;;
6019;SDS011;3038;51.122;6.840;2023-02-12T08:21:39;64.77;;;41.33;;
6019;SDS011;3038;51.122;6.840;2023-02-12T08:24:04;59.20;;;40.30;;
6019;SDS011;3038;51.122;6.840;2023-02-12T08:26:34;71.90;;;42.33;;
6019;SDS011;3038;51.122;6.840;2023-02-12T08:29:05;64.60;;;41.33;;
6019;SDS011;3038;51.122;6.840;2023-02-12T08:31:38;65.50;;;42.77;;
6019;SDS011;3038;51.122;6.840;2023-02-12T08:34:06;67.47;;;42.43;;
6019;SDS011;3038;51.122;6.840;2023-02-12T08:36:35;65.87;;;43.97;;
6019;SDS011;3038;51.122;6.840;2023-02-12T08:39:03;64.53;;;41.27;;
6019;SDS011;3038;51.122;6.840;2023-02-12T08:41:29;71.40;;;45.50;;
6019;SDS011;3038;51.122;6.840;2023-02-12T08:43:56;64.70;;;43.93;;
6019;SDS011;3038;51.122;6.840;2023-02-12T08:46:23;71.77;;;44.50;;
6019;SDS011;3038;51.122;6.840;2023-02-12T08:48:52;63.80;;;42.67;;
6019;SDS011;3038;51.122;6.840;2023-02-12T08:51:21;65.60;;;41.93;;
6019;SDS011;3038;51.122;6.840;2023-02-12T08:53:50;66.50;;;43.00;;
6019;SDS011;3038;51.122;6.840;2023-02-12T08:56:17;55.87;;;40.27;;
6019;SDS011;3038;51.122;6.840;2023-02-12T08:58:44;62.73;;;42.63;;
6019;SDS011;3038;51.122;6.840;2023-02-12T09:01:13;63.63;;;43.40;;
6019;SDS011;3038;51.122;6.840;2023-02-12T09:03:44;62.80;;;44.07;;
6019;SDS011;3038;51.122;6.840;2023-02-12T09:06:10;60.67;;;42.60;;
6019;SDS011;3038;51.122;6.840;2023-02-12T09:08:36;60.40;;;43.23;;
6019;SDS011;3038;51.122;6.840;2023-02-12T09:11:03;62.93;;;43.20;;
6019;SDS011;3038;51.122;6.840;2023-02-12T09:13:33;62.57;;;43.57;;
6019;SDS011;3038;51.122;6.840;2023-02-12T09:16:01;62.23;;;43.70;;
6019;SDS011;3038;51.122;6.840;2023-02-12T09:18:28;62.67;;;43.90;;
6019;SDS011;3038;51.122;6.840;2023-02-12T09:20:54;62.70;;;45.80;;
6019;SDS011;3038;51.122;6.840;2023-02-12T09:23:19;59.87;;;43.87;;
6019;SDS011;3038;51.122;6.840;2023-02-12T09:25:45;64.87;;;44.30;;
6019;SDS011;3038;51.122;6.840;2023-02-12T09:28:12;62.23;;;42.10;;
6019;SDS011;3038;51.122;6.840;2023-02-12T09:30:38;66.67;;;43.67;;
6019;SDS011;3038;51.122;6.840;2023-02-12T09:33:05;71.43;;;47.00;;
6019;SDS011;3038;51.122;6.840;2023-02-12T09:35:34;68.93;;;45.27;;
6019;SDS011;3038;51.122;6.840;2023-02-12T09:38:00;60.27;;;43.83;;
6019;SDS011;3038;51.122;6.840;2023-02-12T09:45:54;69.20;;;44.30;;
6019;SDS011;3038;51.122;6.840;2023-02-12T09:48:34;58.77;;;41.93;;
6019;SDS011;3038;51.122;6.840;2023-02-12T09:51:09;66.73;;;43.57;;
6019;SDS011;3038;51.122;6.840;2023-02-12T09:53:36;56.97;;;43.37;;
6019;SDS011;3038;51.122;6.840;2023-02-12T09:56:12;72.40;;;45.50;;
6019;SDS011;3038;51.122;6.840;2023-02-12T09:58:50;66.43;;;45.23;;
6019;SDS011;3038;51.122;6.840;2023-02-12T10:01:18;63.20;;;44.80;;
6019;SDS011;3038;51.122;6.840;2023-02-12T10:03:45;61.93;;;44.77;;
6019;SDS011;3038;51.122;6.840;2023-02-12T10:06:14;62.00;;;46.67;;
6019;SDS011;3038;51.122;6.840;2023-02-12T10:11:29;67.47;;;47.10;;
6019;SDS011;3038;51.122;6.840;2023-02-12T10:25:47;60.53;;;45.07;;
6019;SDS011;3038;51.122;6.840;2023-02-12T10:28:16;62.03;;;45.70;;
6019;SDS011;3038;51.122;6.840;2023-02-12T10:30:48;63.93;;;45.50;;
6019;SDS011;3038;51.122;6.840;2023-02-12T10:33:20;63.20;;;45.13;;
6019;SDS011;3038;51.122;6.840;2023-02-12T10:36:26;59.50;;;45.03;;
6019;SDS011;3038;51.122;6.840;2023-02-12T10:38:50;58.90;;;45.70;;
6019;SDS011;3038;51.122;6.840;2023-02-12T10:41:22;57.07;;;44.47;;
6019;SDS011;3038;51.122;6.840;2023-02-12T10:43:51;63.27;;;46.37;;
6019;SDS011;3038;51.122;6.840;2023-02-12T10:46:17;57.43;;;41.70;;
6019;SDS011;3038;51.122;6.840;2023-02-12T10:48:46;54.70;;;42.73;;
6019;SDS011;3038;51.122;6.840;2023-02-12T10:51:28;54.40;;;41.80;;
6019;SDS011;3038;51.122;6.840;2023-02-12T11:00:12;55.60;;;42.00;;
6019;SDS011;3038;51.122;6.840;2023-02-12T11:05:41;57.87;;;43.10;;
6019;SDS011;3038;51.122;6.840;2023-02-12T11:08:24;53.47;;;40.33;;
6019;SDS011;3038;51.122;6.840;2023-02-12T11:10:53;51.87;;;38.03;;
6019;SDS011;3038;51.122;6.840;2023-02-12T11:13:23;49.47;;;37.30;;
6019;SDS011;3038;51.122;6.840;2023-02-12T11:15:51;53.97;;;38.57;;
6019;SDS011;3038;51.122;6.840;2023-02-12T11:18:25;48.30;;;37.67;;
6019;SDS011;3038;51.122;6.840;2023-02-12T11:20:56;51.87;;;40.77;;
6019;SDS011;3038;51.122;6.840;2023-02-12T11:23:35;49.10;;;38.87;;
6019;SDS011;3038;51.122;6.840;2023-02-12T11:28:56;52.47;;;40.90;;
6019;SDS011;3038;51.122;6.840;2023-02-12T11:36:47;55.70;;;40.37;;
6019;SDS011;3038;51.122;6.840;2023-02-12T11:39:19;50.33;;;39.60;;
6019;SDS011;3038;51.122;6.840;2023-02-12T11:42:34;47.07;;;37.73;;
6019;SDS011;3038;51.122;6.840;2023-02-12T11:44:48;51.20;;;40.27;;
6019;SDS011;3038;51.122;6.840;2023-02-12T11:47:20;50.83;;;39.17;;
6019;SDS011;3038;51.122;6.840;2023-02-12T11:52:22;50.23;;;39.50;;
6019;SDS011;3038;51.122;6.840;2023-02-12T11:54:59;53.03;;;37.67;;
6019;SDS011;3038;51.122;6.840;2023-02-12T11:57:35;52.80;;;39.97;;
6019;SDS011;3038;51.122;6.840;2023-02-12T12:00:34;50.83;;;38.83;;
6019;SDS011;3038;51.122;6.840;2023-02-12T12:06:05;47.23;;;34.20;;
6019;SDS011;3038;51.122;6.840;2023-02-12T12:09:03;44.37;;;35.10;;
6019;SDS011;3038;51.122;6.840;2023-02-12T12:14:41;40.37;;;32.37;;
6019;SDS011;3038;51.122;6.840;2023-02-12T12:17:37;44.63;;;33.93;;
6019;SDS011;3038;51.122;6.840;2023-02-12T12:20:27;44.53;;;34.77;;
6019;SDS011;3038;51.122;6.840;2023-02-12T12:23:08;47.50;;;36.00;;
6019;SDS011;3038;51.122;6.840;2023-02-12T12:25:58;47.13;;;34.80;;
6019;SDS011;3038;51.122;6.840;2023-02-12T12:28:35;48.57;;;34.70;;
6019;SDS011;3038;51.122;6.840;2023-02-12T12:31:16;42.80;;;33.17;;
6019;SDS011;3038;51.122;6.840;2023-02-12T12:33:45;38.53;;;30.87;;
6019;SDS011;3038;51.122;6.840;2023-02-12T12:36:24;46.23;;;33.67;;
6019;SDS011;3038;51.122;6.840;2023-02-12T12:39:02;45.37;;;35.57;;
6019;SDS011;3038;51.122;6.840;2023-02-12T12:52:28;36.00;;;28.90;;
6019;SDS011;3038;51.122;6.840;2023-02-12T12:55:39;36.70;;;29.97;;
6019;SDS011;3038;51.122;6.840;2023-02-12T13:06:29;38.73;;;30.47;;
6019;SDS011;3038;51.122;6.840;2023-02-12T13:09:07;38.77;;;29.57;;
6019;SDS011;3038;51.122;6.840;2023-02-12T13:22:20;31.87;;;27.30;;
6019;SDS011;3038;51.122;6.840;2023-02-12T13:27:53;35.63;;;27.53;;
6019;SDS011;3038;51.122;6.840;2023-02-12T13:35:47;34.37;;;25.20;;
6019;SDS011;3038;51.122;6.840;2023-02-12T13:38:24;37.00;;;26.20;;
6019;SDS011;3038;51.122;6.840;2023-02-12T13:40:55;31.13;;;26.00;;
6019;SDS011;3038;51.122;6.840;2023-02-12T13:49:20;32.63;;;25.93;;
6019;SDS011;3038;51.122;6.840;2023-02-12T13:52:10;32.20;;;26.00;;
6019;SDS011;3038;51.122;6.840;2023-02-12T13:54:53;33.47;;;25.57;;
6019;SDS011;3038;51.122;6.840;2023-02-12T13:57:21;32.00;;;25.60;;
6019;SDS011;3038;51.122;6.840;2023-02-12T13:59:50;30.10;;;23.90;;
6019;SDS011;3038;51.122;6.840;2023-02-12T14:02:29;26.47;;;22.87;;
6019;SDS011;3038;51.122;6.840;2023-02-12T14:05:14;29.20;;;24.60;;
6019;SDS011;3038;51.122;6.840;2023-02-12T14:12:47;29.37;;;24.30;;
6019;SDS011;3038;51.122;6.840;2023-02-12T14:15:24;35.10;;;26.00;;
6019;SDS011;3038;51.122;6.840;2023-02-12T14:20:29;33.80;;;25.10;;
6019;SDS011;3038;51.122;6.840;2023-02-12T14:23:20;32.47;;;26.63;;
6019;SDS011;3038;51.122;6.840;2023-02-12T14:25:47;34.37;;;23.40;;
6019;SDS011;3038;51.122;6.840;2023-02-12T14:28:31;30.67;;;24.93;;
6019;SDS011;3038;51.122;6.840;2023-02-12T14:33:44;31.83;;;21.57;;
6019;SDS011;3038;51.122;6.840;2023-02-12T14:36:35;31.70;;;22.10;;
6019;SDS011;3038;51.122;6.840;2023-02-12T14:38:57;30.87;;;22.83;;
6019;SDS011;3038;51.122;6.840;2023-02-12T14:49:32;32.20;;;23.93;;
6019;SDS011;3038;51.122;6.840;2023-02-12T14:54:50;29.73;;;23.00;;
6019;SDS011;3038;51.122;6.840;2023-02-12T14:57:25;32.20;;;24.10;;
6019;SDS011;3038;51.122;6.840;2023-02-12T14:59:51;31.03;;;22.50;;
6019;SDS011;3038;51.122;6.840;2023-02-12T15:02:24;30.80;;;24.43;;
6019;SDS011;3038;51.122;6.840;2023-02-12T15:04:52;32.70;;;24.70;;
6019;SDS011;3038;51.122;6.840;2023-02-12T15:07:30;28.53;;;22.30;;
6019;SDS011;3038;51.122;6.840;2023-02-12T15:10:04;31.97;;;21.90;;
6019;SDS011;3038;51.122;6.840;2023-02-12T15:12:38;33.33;;;23.40;;
6019;SDS011;3038;51.122;6.840;2023-02-12T15:15:13;27.80;;;21.50;;
6019;SDS011;3038;51.122;6.840;2023-02-12T15:20:45;34.10;;;26.03;;
6019;SDS011;3038;51.122;6.840;2023-02-12T15:23:33;31.37;;;23.73;;
6019;SDS011;3038;51.122;6.840;2023-02-12T15:26:02;34.77;;;23.80;;
6019;SDS011;3038;51.122;6.840;2023-02-12T15:28:31;31.67;;;22.87;;
6019;SDS011;3038;51.122;6.840;2023-02-12T15:31:00;32.20;;;23.83;;
6019;SDS011;3038;51.122;6.840;2023-02-12T15:33:32;31.93;;;23.80;;
6019;SDS011;3038;51.122;6.840;2023-02-12T15:35:59;37.10;;;24.17;;
6019;SDS011;3038;51.122;6.840;2023-02-12T15:38:29;32.00;;;23.73;;
6019;SDS011;3038;51.122;6.840;2023-02-12T15:40:58;30.20;;;23.03;;
6019;SDS011;3038;51.122;6.840;2023-02-12T15:43:25;43.03;;;26.07;;
6019;SDS011;3038;51.122;6.840;2023-02-12T15:45:54;33.90;;;24.93;;
6019;SDS011;3038;51.122;6.840;2023-02-12T15:48:20;30.47;;;23.93;;
6019;SDS011;3038;51.122;6.840;2023-02-12T15:50:54;38.03;;;24.97;;
6019;SDS011;3038;51.122;6.840;2023-02-12T15:53:32;36.17;;;28.35;;
6019;SDS011;3038;51.122;6.840;2023-02-12T15:55:58;31.33;;;23.93;;
6019;SDS011;3038;51.122;6.840;2023-02-12T15:58:41;35.23;;;25.30;;
6019;SDS011;3038;51.122;6.840;2023-02-12T16:01:13;35.17;;;25.90;;
6019;SDS011;3038;51.122;6.840;2023-02-12T16:03:41;33.80;;;22.53;;
6019;SDS011;3038;51.122;6.840;2023-02-12T16:06:07;32.80;;;23.23;;
6019;SDS011;3038;51.122;6.840;2023-02-12T16:08:36;36.00;;;24.77;;
6019;SDS011;3038;51.122;6.840;2023-02-12T16:11:02;30.80;;;25.00;;
6019;SDS011;3038;51.122;6.840;2023-02-12T16:13:38;37.93;;;26.63;;
6019;SDS011;3038;51.122;6.840;2023-02-12T16:18:36;31.93;;;24.50;;
6019;SDS011;3038;51.122;6.840;2023-02-12T16:21:05;33.60;;;23.60;;
6019;SDS011;3038;51.122;6.840;2023-02-12T16:23:37;32.17;;;24.70;;
6019;SDS011;3038;51.122;6.840;2023-02-12T16:26:03;37.03;;;26.33;;
6019;SDS011;3038;51.122;6.840;2023-02-12T16:28:29;31.50;;;23.70;;
6019;SDS011;3038;51.122;6.840;2023-02-12T16:31:06;33.23;;;23.87;;
6019;SDS011;3038;51.122;6.840;2023-02-12T16:36:14;34.40;;;24.27;;
6019;SDS011;3038;51.122;6.840;2023-02-12T16:38:52;32.23;;;23.07;;
6019;SDS011;3038;51.122;6.840;2023-02-12T16:41:52;33.27;;;24.30;;
6019;SDS011;3038;51.122;6.840;2023-02-12T16:44:20;38.00;;;27.67;;
6019;SDS011;3038;51.122;6.840;2023-02-12T16:46:50;43.60;;;30.53;;
6019;SDS011;3038;51.122;6.840;2023-02-12T16:49:20;40.70;;;29.50;;
6019;SDS011;3038;51.122;6.840;2023-02-12T16:51:47;37.17;;;26.90;;
6019;SDS011;3038;51.122;6.840;2023-02-12T16:54:30;36.67;;;26.57;;
6019;SDS011;3038;51.122;6.840;2023-02-12T16:56:56;33.60;;;25.00;;
6019;SDS011;3038;51.122;6.840;2023-02-12T16:59:22;32.30;;;24.83;;
6019;SDS011;3038;51.122;6.840;2023-02-12T17:01:58;39.03;;;28.30;;
6019;SDS011;3038;51.122;6.840;2023-02-12T17:04:28;38.60;;;27.73;;
6019;SDS011;3038;51.122;6.840;2023-02-12T17:06:54;36.27;;;25.90;;
6019;SDS011;3038;51.122;6.840;2023-02-12T17:09:21;38.83;;;27.23;;
6019;SDS011;3038;51.122;6.840;2023-02-12T17:11:46;36.20;;;25.93;;
6019;SDS011;3038;51.122;6.840;2023-02-12T17:14:13;34.87;;;23.93;;
6019;SDS011;3038;51.122;6.840;2023-02-12T17:16:43;34.83;;;26.07;;
6019;SDS011;3038;51.122;6.840;2023-02-12T17:19:09;31.03;;;25.40;;
6019;SDS011;3038;51.122;6.840;2023-02-12T17:21:35;35.00;;;24.70;;
6019;SDS011;3038;51.122;6.840;2023-02-12T17:24:13;36.10;;;25.50;;
6019;SDS011;3038;51.122;6.840;2023-02-12T17:26:39;34.87;;;25.53;;
6019;SDS011;3038;51.122;6.840;2023-02-12T17:29:06;31.40;;;23.43;;
6019;SDS011;3038;51.122;6.840;2023-02-12T17:31:32;38.40;;;28.17;;
6019;SDS011;3038;51.122;6.840;2023-02-12T17:33:58;35.17;;;27.50;;
6019;SDS011;3038;51.122;6.840;2023-02-12T17:36:23;35.90;;;26.50;;
6019;SDS011;3038;51.122;6.840;2023-02-12T17:38:49;39.77;;;29.40;;
6019;SDS011;3038;51.122;6.840;2023-02-12T17:41:15;32.17;;;26.70;;
6019;SDS011;3038;51.122;6.840;2023-02-12T17:43:41;38.10;;;28.27;;